Bookmark and Share
Track history (hours):
 

Iver Bright

Last reported at 2014-Apr-17 21:33 UTC. Time now 2014-Apr-18 20:56 UTC.
Position N 36°46' E 003°06'.

Length 111 m; draft 7.2 m.

Type: Tanker. MMSI: 236111811.

NotesDate/timePositionNaut miles runAvg speedWind from/ knotsBaromVisibWave heightAir tempDewpointWater temp
2014-Apr-17 21:33N 36°46' E 003°06'0 0.0
2014-Apr-17 20:05N 36°46' E 003°06'0 0.0
2014-Apr-17 16:26N 36°46' E 003°06'0 0.0
2014-Apr-17 14:08N 36°46' E 003°06'0 0.0
2014-Apr-17 13:29N 36°46' E 003°06'0 0.0
2014-Apr-17 12:32N 36°46' E 003°06'0 0.0
2014-Apr-17 11:32N 36°46' E 003°06'0 0.0
2014-Apr-17 09:29N 36°46' E 003°06'0 0.0
2014-Apr-17 07:23N 36°46' E 003°06'0 0.0
2014-Apr-17 06:29N 36°46' E 003°06'0 0.0
2014-Apr-17 05:32N 36°46' E 003°06'0 0.0
2014-Apr-17 04:32N 36°46' E 003°06'0 0.0
2014-Apr-17 03:29N 36°46' E 003°06'0 0.0
2014-Apr-17 02:20N 36°46' E 003°06'0 0.0
2014-Apr-17 01:32N 36°46' E 003°06'0 0.0
2014-Apr-16 23:14N 36°46' E 003°06'0 0.0
2014-Apr-16 21:29N 36°46' E 003°06'0 0.0
2014-Apr-16 18:05N 36°46' E 003°06'0 0.0
2014-Apr-16 17:13N 36°46' E 003°06'0 0.0
2014-Apr-16 15:23N 36°46' E 003°06'0 0.0
2014-Apr-16 14:32N 36°46' E 003°06'0 0.0
2014-Apr-16 12:14N 36°46' E 003°06'0 0.0
2014-Apr-16 03:11N 36°46' E 003°06'0 0.0
2014-Apr-15 19:23N 36°46' E 003°06'0 0.0
2014-Apr-15 15:23N 36°46' E 003°06'0 0.0
2014-Apr-15 14:29N 36°46' E 003°06'0 0.0
2014-Apr-15 09:32N 36°46' E 003°06'0 0.0
2014-Apr-15 08:29N 36°46' E 003°06'0 0.0
2014-Apr-15 06:29N 36°46' E 003°06'0 0.0
2014-Apr-15 01:32N 36°46' E 003°06'300 6.0
2014-Apr-12 23:24N 37°39' E 009°17'8 9.8
2014-Apr-12 22:33N 37°39' E 009°28'10 9.8
2014-Apr-12 21:33N 37°39' E 009°40'10 9.6
2014-Apr-12 20:33N 37°39' E 009°52'9 9.2
2014-Apr-12 19:33N 37°39' E 010°04'13 9.0
2014-Apr-12 18:04N 37°38' E 010°20'5 9.0
2014-Apr-12 17:32N 37°37' E 010°26'9 8.8
2014-Apr-12 16:33N 37°35' E 010°37'9 8.8
2014-Apr-12 15:33N 37°33' E 010°48'9 8.8
2014-Apr-12 14:33N 37°31' E 010°59'9 8.6
2014-Apr-12 13:33N 37°29' E 011°09'9 9.2
2014-Apr-12 12:33N 37°24' E 011°19'72 9.0
2014-Apr-12 04:33N 37°04' E 012°46'40 9.5
2014-Apr-12 00:24N 36°49' E 013°32'9 9.3
2014-Apr-11 23:28N 36°45' E 013°41'18 9.4
2014-Apr-11 21:33N 36°38' E 014°02'13 9.6
2014-Apr-11 20:09N 36°32' E 014°17'5 9.2
2014-Apr-11 19:33N 36°30' E 014°23'9 8.8
2014-Apr-11 18:33N 36°26' E 014°33'12 8.4
2014-Apr-11 17:06N 36°25' E 014°48'14 8.9
2014-Apr-11 15:33N 36°28' E 015°05'9 8.8
2014-Apr-11 14:33N 36°32' E 015°15'19 9.3
2014-Apr-11 12:33N 36°50' E 015°22'1311.7
2014-Apr-11 11:28N 37°02' E 015°25'48 1.1
2014-Apr-09 16:23N 37°05' E 016°25'  

Dump ship's entire track history

sailing weather and tide predictions

Iver Bright — ZDKU4 — position and weather